sensor_id;sensor_type;location;lat;lon;timestamp;P1;durP1;ratioP1;P2;durP2;ratioP2
12141;SDS011;6134;59.284;18.022;2023-05-06T00:00:54;4.55;;;2.85;;
12141;SDS011;6134;59.284;18.022;2023-05-06T00:03:23;4.13;;;2.83;;
12141;SDS011;6134;59.284;18.022;2023-05-06T00:05:52;3.13;;;2.63;;
12141;SDS011;6134;59.284;18.022;2023-05-06T00:08:21;6.50;;;3.30;;
12141;SDS011;6134;59.284;18.022;2023-05-06T00:10:50;5.47;;;3.10;;
12141;SDS011;6134;59.284;18.022;2023-05-06T00:13:20;4.65;;;3.33;;
12141;SDS011;6134;59.284;18.022;2023-05-06T00:15:49;5.90;;;2.90;;
12141;SDS011;6134;59.284;18.022;2023-05-06T00:18:17;4.22;;;2.40;;
12141;SDS011;6134;59.284;18.022;2023-05-06T00:20:47;3.40;;;2.78;;
12141;SDS011;6134;59.284;18.022;2023-05-06T00:23:16;6.22;;;3.10;;
12141;SDS011;6134;59.284;18.022;2023-05-06T00:25:45;6.28;;;2.70;;
12141;SDS011;6134;59.284;18.022;2023-05-06T00:28:14;6.28;;;3.28;;
12141;SDS011;6134;59.284;18.022;2023-05-06T00:30:44;5.95;;;3.13;;
12141;SDS011;6134;59.284;18.022;2023-05-06T00:33:12;6.00;;;3.05;;
12141;SDS011;6134;59.284;18.022;2023-05-06T00:35:41;5.80;;;3.35;;
12141;SDS011;6134;59.284;18.022;2023-05-06T00:38:11;4.25;;;3.33;;
12141;SDS011;6134;59.284;18.022;2023-05-06T00:40:41;4.25;;;3.45;;
12141;SDS011;6134;59.284;18.022;2023-05-06T00:43:10;5.80;;;3.05;;
12141;SDS011;6134;59.284;18.022;2023-05-06T00:45:39;8.10;;;3.80;;
12141;SDS011;6134;59.284;18.022;2023-05-06T00:48:09;5.18;;;3.60;;
12141;SDS011;6134;59.284;18.022;2023-05-06T00:50:38;6.15;;;3.35;;
12141;SDS011;6134;59.284;18.022;2023-05-06T00:53:07;6.95;;;3.92;;
12141;SDS011;6134;59.284;18.022;2023-05-06T00:55:37;4.93;;;3.00;;
12141;SDS011;6134;59.284;18.022;2023-05-06T00:58:05;5.88;;;2.97;;
12141;SDS011;6134;59.284;18.022;2023-05-06T01:00:34;6.88;;;3.05;;
12141;SDS011;6134;59.284;18.022;2023-05-06T01:03:03;7.15;;;3.13;;
12141;SDS011;6134;59.284;18.022;2023-05-06T01:05:34;8.90;;;3.05;;
12141;SDS011;6134;59.284;18.022;2023-05-06T01:08:09;3.78;;;3.13;;
12141;SDS011;6134;59.284;18.022;2023-05-06T01:10:41;6.97;;;2.97;;
12141;SDS011;6134;59.284;18.022;2023-05-06T01:13:13;4.82;;;2.50;;
12141;SDS011;6134;59.284;18.022;2023-05-06T01:15:44;5.00;;;2.97;;
12141;SDS011;6134;59.284;18.022;2023-05-06T01:18:14;3.35;;;2.70;;
12141;SDS011;6134;59.284;18.022;2023-05-06T01:20:46;5.70;;;2.53;;
12141;SDS011;6134;59.284;18.022;2023-05-06T01:23:17;3.33;;;2.70;;
12141;SDS011;6134;59.284;18.022;2023-05-06T01:25:46;4.38;;;2.92;;
12141;SDS011;6134;59.284;18.022;2023-05-06T01:28:15;5.35;;;3.22;;
12141;SDS011;6134;59.284;18.022;2023-05-06T01:30:46;6.60;;;3.72;;
12141;SDS011;6134;59.284;18.022;2023-05-06T01:33:18;6.95;;;3.22;;
12141;SDS011;6134;59.284;18.022;2023-05-06T01:35:52;7.32;;;3.78;;
12141;SDS011;6134;59.284;18.022;2023-05-06T01:38:26;4.75;;;3.85;;
12141;SDS011;6134;59.284;18.022;2023-05-06T01:40:57;4.75;;;4.05;;
12141;SDS011;6134;59.284;18.022;2023-05-06T01:43:31;6.82;;;3.95;;
12141;SDS011;6134;59.284;18.022;2023-05-06T01:46:01;7.38;;;4.97;;
12141;SDS011;6134;59.284;18.022;2023-05-06T01:48:31;5.25;;;3.20;;
12141;SDS011;6134;59.284;18.022;2023-05-06T01:51:01;9.75;;;4.38;;
12141;SDS011;6134;59.284;18.022;2023-05-06T01:53:31;6.88;;;3.80;;
12141;SDS011;6134;59.284;18.022;2023-05-06T01:56:00;6.47;;;3.45;;
12141;SDS011;6134;59.284;18.022;2023-05-06T01:58:29;6.47;;;3.75;;
12141;SDS011;6134;59.284;18.022;2023-05-06T02:00:58;6.05;;;3.70;;
12141;SDS011;6134;59.284;18.022;2023-05-06T02:03:27;5.60;;;3.95;;
12141;SDS011;6134;59.284;18.022;2023-05-06T02:05:56;3.60;;;2.95;;
12141;SDS011;6134;59.284;18.022;2023-05-06T02:08:27;4.25;;;3.10;;
12141;SDS011;6134;59.284;18.022;2023-05-06T02:10:57;5.68;;;3.30;;
12141;SDS011;6134;59.284;18.022;2023-05-06T02:13:26;3.80;;;3.05;;
12141;SDS011;6134;59.284;18.022;2023-05-06T02:15:56;4.70;;;2.95;;
12141;SDS011;6134;59.284;18.022;2023-05-06T02:18:24;5.35;;;3.20;;
12141;SDS011;6134;59.284;18.022;2023-05-06T02:20:54;9.18;;;3.13;;
12141;SDS011;6134;59.284;18.022;2023-05-06T02:23:23;5.93;;;3.55;;
12141;SDS011;6134;59.284;18.022;2023-05-06T02:25:52;5.07;;;3.40;;
12141;SDS011;6134;59.284;18.022;2023-05-06T02:28:22;5.43;;;3.40;;
12141;SDS011;6134;59.284;18.022;2023-05-06T02:30:53;5.03;;;3.08;;
12141;SDS011;6134;59.284;18.022;2023-05-06T02:33:22;4.97;;;3.22;;
12141;SDS011;6134;59.284;18.022;2023-05-06T02:35:51;5.03;;;3.50;;
12141;SDS011;6134;59.284;18.022;2023-05-06T02:38:20;4.47;;;3.22;;
12141;SDS011;6134;59.284;18.022;2023-05-06T02:40:49;6.47;;;3.67;;
12141;SDS011;6134;59.284;18.022;2023-05-06T02:43:18;4.45;;;3.33;;
12141;SDS011;6134;59.284;18.022;2023-05-06T02:45:49;4.93;;;3.78;;
12141;SDS011;6134;59.284;18.022;2023-05-06T02:48:18;4.30;;;2.88;;
12141;SDS011;6134;59.284;18.022;2023-05-06T02:50:49;4.80;;;3.15;;
12141;SDS011;6134;59.284;18.022;2023-05-06T02:53:18;3.83;;;2.95;;
12141;SDS011;6134;59.284;18.022;2023-05-06T02:55:46;8.45;;;3.50;;
12141;SDS011;6134;59.284;18.022;2023-05-06T02:58:15;5.25;;;3.08;;
12141;SDS011;6134;59.284;18.022;2023-05-06T03:00:44;4.65;;;3.25;;
12141;SDS011;6134;59.284;18.022;2023-05-06T03:03:14;5.38;;;3.42;;
12141;SDS011;6134;59.284;18.022;2023-05-06T03:05:43;4.35;;;3.20;;
12141;SDS011;6134;59.284;18.022;2023-05-06T03:08:11;8.40;;;3.35;;
12141;SDS011;6134;59.284;18.022;2023-05-06T03:10:40;5.72;;;3.22;;
12141;SDS011;6134;59.284;18.022;2023-05-06T03:13:09;8.35;;;3.97;;
12141;SDS011;6134;59.284;18.022;2023-05-06T03:15:38;4.95;;;3.50;;
12141;SDS011;6134;59.284;18.022;2023-05-06T03:18:07;5.38;;;3.75;;
12141;SDS011;6134;59.284;18.022;2023-05-06T03:20:39;4.68;;;3.53;;
12141;SDS011;6134;59.284;18.022;2023-05-06T03:23:08;8.57;;;3.33;;
12141;SDS011;6134;59.284;18.022;2023-05-06T03:25:36;7.13;;;3.80;;
12141;SDS011;6134;59.284;18.022;2023-05-06T03:28:06;6.45;;;3.70;;
12141;SDS011;6134;59.284;18.022;2023-05-06T03:30:36;10.88;;;3.63;;
12141;SDS011;6134;59.284;18.022;2023-05-06T03:33:06;5.15;;;3.92;;
12141;SDS011;6134;59.284;18.022;2023-05-06T03:35:35;5.88;;;3.60;;
12141;SDS011;6134;59.284;18.022;2023-05-06T03:38:05;7.90;;;3.63;;
12141;SDS011;6134;59.284;18.022;2023-05-06T03:40:41;6.55;;;3.75;;
12141;SDS011;6134;59.284;18.022;2023-05-06T03:43:12;7.45;;;3.88;;
12141;SDS011;6134;59.284;18.022;2023-05-06T03:45:42;6.85;;;3.42;;
12141;SDS011;6134;59.284;18.022;2023-05-06T03:48:12;5.30;;;3.38;;
12141;SDS011;6134;59.284;18.022;2023-05-06T03:50:42;6.00;;;3.28;;
12141;SDS011;6134;59.284;18.022;2023-05-06T03:53:13;7.15;;;3.78;;
12141;SDS011;6134;59.284;18.022;2023-05-06T03:55:44;7.03;;;3.38;;
12141;SDS011;6134;59.284;18.022;2023-05-06T03:58:13;4.90;;;3.00;;
12141;SDS011;6134;59.284;18.022;2023-05-06T04:00:43;4.47;;;2.88;;
12141;SDS011;6134;59.284;18.022;2023-05-06T04:03:12;3.78;;;2.88;;
12141;SDS011;6134;59.284;18.022;2023-05-06T04:05:45;5.10;;;2.85;;
12141;SDS011;6134;59.284;18.022;2023-05-06T04:08:17;3.38;;;2.95;;
12141;SDS011;6134;59.284;18.022;2023-05-06T04:10:46;6.00;;;2.75;;
12141;SDS011;6134;59.284;18.022;2023-05-06T04:13:23;4.15;;;2.67;;
12141;SDS011;6134;59.284;18.022;2023-05-06T04:15:52;3.67;;;2.78;;
12141;SDS011;6134;59.284;18.022;2023-05-06T04:18:27;3.88;;;2.58;;
12141;SDS011;6134;59.284;18.022;2023-05-06T04:21:03;3.22;;;2.72;;
12141;SDS011;6134;59.284;18.022;2023-05-06T04:23:36;5.15;;;3.40;;
12141;SDS011;6134;59.284;18.022;2023-05-06T04:26:06;4.97;;;3.00;;
12141;SDS011;6134;59.284;18.022;2023-05-06T04:28:38;4.65;;;3.10;;
12141;SDS011;6134;59.284;18.022;2023-05-06T04:31:08;4.50;;;3.30;;
12141;SDS011;6134;59.284;18.022;2023-05-06T04:33:42;5.13;;;3.20;;
12141;SDS011;6134;59.284;18.022;2023-05-06T04:36:14;4.03;;;2.75;;
12141;SDS011;6134;59.284;18.022;2023-05-06T04:39:04;3.17;;;2.72;;
12141;SDS011;6134;59.284;18.022;2023-05-06T04:41:35;3.72;;;3.20;;
12141;SDS011;6134;59.284;18.022;2023-05-06T04:44:04;6.95;;;3.08;;
12141;SDS011;6134;59.284;18.022;2023-05-06T04:46:34;6.65;;;3.15;;
12141;SDS011;6134;59.284;18.022;2023-05-06T04:49:02;5.70;;;2.97;;
12141;SDS011;6134;59.284;18.022;2023-05-06T04:51:32;4.68;;;2.80;;
12141;SDS011;6134;59.284;18.022;2023-05-06T04:54:01;5.28;;;3.30;;
12141;SDS011;6134;59.284;18.022;2023-05-06T04:56:32;5.78;;;3.10;;
12141;SDS011;6134;59.284;18.022;2023-05-06T04:59:03;3.80;;;2.85;;
12141;SDS011;6134;59.284;18.022;2023-05-06T05:01:32;5.88;;;3.33;;
12141;SDS011;6134;59.284;18.022;2023-05-06T05:04:01;6.95;;;2.75;;
12141;SDS011;6134;59.284;18.022;2023-05-06T05:06:30;6.13;;;3.30;;
12141;SDS011;6134;59.284;18.022;2023-05-06T05:08:59;5.68;;;2.75;;
12141;SDS011;6134;59.284;18.022;2023-05-06T05:11:28;3.30;;;2.90;;
12141;SDS011;6134;59.284;18.022;2023-05-06T05:13:59;4.68;;;2.65;;
12141;SDS011;6134;59.284;18.022;2023-05-06T05:16:29;6.95;;;3.00;;
12141;SDS011;6134;59.284;18.022;2023-05-06T05:19:00;6.57;;;2.42;;
12141;SDS011;6134;59.284;18.022;2023-05-06T05:21:31;3.17;;;2.35;;
12141;SDS011;6134;59.284;18.022;2023-05-06T05:24:00;3.00;;;2.00;;
12141;SDS011;6134;59.284;18.022;2023-05-06T05:26:29;3.42;;;2.00;;
12141;SDS011;6134;59.284;18.022;2023-05-06T05:29:00;3.65;;;2.00;;
12141;SDS011;6134;59.284;18.022;2023-05-06T05:31:30;4.30;;;1.85;;
12141;SDS011;6134;59.284;18.022;2023-05-06T05:34:00;3.00;;;1.80;;
12141;SDS011;6134;59.284;18.022;2023-05-06T05:36:28;3.83;;;1.40;;
12141;SDS011;6134;59.284;18.022;2023-05-06T05:39:01;2.22;;;1.10;;
12141;SDS011;6134;59.284;18.022;2023-05-06T05:41:31;1.85;;;1.02;;
12141;SDS011;6134;59.284;18.022;2023-05-06T05:44:02;0.80;;;0.80;;
12141;SDS011;6134;59.284;18.022;2023-05-06T05:46:31;1.58;;;1.20;;
12141;SDS011;6134;59.284;18.022;2023-05-06T05:49:01;1.95;;;1.00;;
12141;SDS011;6134;59.284;18.022;2023-05-06T05:51:30;1.33;;;0.85;;
12141;SDS011;6134;59.284;18.022;2023-05-06T05:54:02;2.33;;;1.17;;
12141;SDS011;6134;59.284;18.022;2023-05-06T05:56:31;4.22;;;1.10;;
12141;SDS011;6134;59.284;18.022;2023-05-06T05:59:02;3.00;;;1.15;;
12141;SDS011;6134;59.284;18.022;2023-05-06T06:01:30;1.40;;;1.20;;
12141;SDS011;6134;59.284;18.022;2023-05-06T06:04:00;0.90;;;0.77;;
12141;SDS011;6134;59.284;18.022;2023-05-06T06:06:29;0.93;;;0.90;;
12141;SDS011;6134;59.284;18.022;2023-05-06T06:08:58;0.90;;;0.90;;
12141;SDS011;6134;59.284;18.022;2023-05-06T06:11:27;0.93;;;0.90;;
12141;SDS011;6134;59.284;18.022;2023-05-06T06:13:57;1.27;;;1.05;;
12141;SDS011;6134;59.284;18.022;2023-05-06T06:16:27;2.03;;;0.75;;
12141;SDS011;6134;59.284;18.022;2023-05-06T06:18:56;1.17;;;0.90;;
12141;SDS011;6134;59.284;18.022;2023-05-06T06:21:27;0.75;;;0.75;;
12141;SDS011;6134;59.284;18.022;2023-05-06T06:23:56;1.55;;;1.00;;
12141;SDS011;6134;59.284;18.022;2023-05-06T06:26:25;1.80;;;1.00;;
12141;SDS011;6134;59.284;18.022;2023-05-06T06:28:54;0.93;;;0.93;;
12141;SDS011;6134;59.284;18.022;2023-05-06T06:31:22;0.90;;;0.80;;
12141;SDS011;6134;59.284;18.022;2023-05-06T06:33:53;1.65;;;1.10;;
12141;SDS011;6134;59.284;18.022;2023-05-06T06:36:21;1.65;;;1.02;;
12141;SDS011;6134;59.284;18.022;2023-05-06T06:38:50;1.27;;;1.00;;
12141;SDS011;6134;59.284;18.022;2023-05-06T06:41:19;1.30;;;1.17;;
12141;SDS011;6134;59.284;18.022;2023-05-06T06:43:48;2.63;;;0.85;;
12141;SDS011;6134;59.284;18.022;2023-05-06T06:46:17;0.80;;;0.80;;
12141;SDS011;6134;59.284;18.022;2023-05-06T06:48:46;1.10;;;1.00;;
12141;SDS011;6134;59.284;18.022;2023-05-06T06:51:16;1.10;;;1.00;;
12141;SDS011;6134;59.284;18.022;2023-05-06T06:53:45;2.13;;;1.00;;
12141;SDS011;6134;59.284;18.022;2023-05-06T06:56:14;0.95;;;0.90;;
12141;SDS011;6134;59.284;18.022;2023-05-06T06:58:43;0.90;;;0.80;;
12141;SDS011;6134;59.284;18.022;2023-05-06T07:01:12;1.00;;;0.93;;
12141;SDS011;6134;59.284;18.022;2023-05-06T07:03:40;1.20;;;1.10;;
12141;SDS011;6134;59.284;18.022;2023-05-06T07:06:09;2.05;;;1.08;;
12141;SDS011;6134;59.284;18.022;2023-05-06T07:08:39;1.30;;;1.00;;
12141;SDS011;6134;59.284;18.022;2023-05-06T07:11:08;1.02;;;0.88;;
12141;SDS011;6134;59.284;18.022;2023-05-06T07:13:37;2.75;;;1.10;;
12141;SDS011;6134;59.284;18.022;2023-05-06T07:16:06;1.58;;;1.10;;
12141;SDS011;6134;59.284;18.022;2023-05-06T07:18:35;0.95;;;0.85;;
12141;SDS011;6134;59.284;18.022;2023-05-06T07:21:03;0.82;;;0.80;;
12141;SDS011;6134;59.284;18.022;2023-05-06T07:23:32;1.23;;;1.08;;
12141;SDS011;6134;59.284;18.022;2023-05-06T07:26:02;1.20;;;1.00;;
12141;SDS011;6134;59.284;18.022;2023-05-06T07:28:31;0.93;;;0.90;;
12141;SDS011;6134;59.284;18.022;2023-05-06T07:30:59;1.23;;;0.80;;
12141;SDS011;6134;59.284;18.022;2023-05-06T07:33:28;1.55;;;0.90;;
12141;SDS011;6134;59.284;18.022;2023-05-06T07:35:57;0.90;;;0.90;;
12141;SDS011;6134;59.284;18.022;2023-05-06T07:38:26;2.05;;;0.90;;
12141;SDS011;6134;59.284;18.022;2023-05-06T07:40:54;0.85;;;0.73;;
12141;SDS011;6134;59.284;18.022;2023-05-06T07:43:24;1.15;;;0.90;;
12141;SDS011;6134;59.284;18.022;2023-05-06T07:45:53;0.90;;;0.70;;
12141;SDS011;6134;59.284;18.022;2023-05-06T07:48:28;1.73;;;0.80;;
12141;SDS011;6134;59.284;18.022;2023-05-06T07:50:57;0.75;;;0.70;;
12141;SDS011;6134;59.284;18.022;2023-05-06T07:53:26;1.23;;;1.13;;
12141;SDS011;6134;59.284;18.022;2023-05-06T07:55:56;2.85;;;1.00;;
12141;SDS011;6134;59.284;18.022;2023-05-06T07:58:29;1.10;;;0.90;;
12141;SDS011;6134;59.284;18.022;2023-05-06T08:00:58;1.20;;;1.10;;
12141;SDS011;6134;59.284;18.022;2023-05-06T08:03:27;1.17;;;0.95;;
12141;SDS011;6134;59.284;18.022;2023-05-06T08:05:56;0.73;;;0.73;;
12141;SDS011;6134;59.284;18.022;2023-05-06T08:08:25;1.40;;;1.00;;
12141;SDS011;6134;59.284;18.022;2023-05-06T08:10:54;0.90;;;0.82;;
12141;SDS011;6134;59.284;18.022;2023-05-06T08:13:23;1.98;;;0.90;;
12141;SDS011;6134;59.284;18.022;2023-05-06T08:15:55;1.38;;;0.88;;
12141;SDS011;6134;59.284;18.022;2023-05-06T08:18:23;1.35;;;0.95;;
12141;SDS011;6134;59.284;18.022;2023-05-06T08:20:52;1.52;;;0.90;;
12141;SDS011;6134;59.284;18.022;2023-05-06T08:23:21;4.55;;;1.10;;
12141;SDS011;6134;59.284;18.022;2023-05-06T08:25:50;1.25;;;1.00;;
12141;SDS011;6134;59.284;18.022;2023-05-06T08:28:19;1.25;;;0.95;;
12141;SDS011;6134;59.284;18.022;2023-05-06T08:30:50;1.92;;;1.00;;
12141;SDS011;6134;59.284;18.022;2023-05-06T08:33:20;1.20;;;1.10;;
12141;SDS011;6134;59.284;18.022;2023-05-06T08:35:50;2.53;;;1.10;;
12141;SDS011;6134;59.284;18.022;2023-05-06T08:38:19;1.33;;;0.85;;
12141;SDS011;6134;59.284;18.022;2023-05-06T08:40:48;1.63;;;1.13;;
12141;SDS011;6134;59.284;18.022;2023-05-06T08:43:20;2.72;;;1.00;;
12141;SDS011;6134;59.284;18.022;2023-05-06T08:45:49;2.83;;;1.00;;
12141;SDS011;6134;59.284;18.022;2023-05-06T08:48:17;1.00;;;0.90;;
12141;SDS011;6134;59.284;18.022;2023-05-06T08:50:48;3.20;;;1.10;;
12141;SDS011;6134;59.284;18.022;2023-05-06T08:53:17;3.10;;;1.23;;
12141;SDS011;6134;59.284;18.022;2023-05-06T08:55:46;2.10;;;1.00;;
12141;SDS011;6134;59.284;18.022;2023-05-06T08:58:16;1.00;;;0.90;;
12141;SDS011;6134;59.284;18.022;2023-05-06T09:00:46;0.73;;;0.70;;
12141;SDS011;6134;59.284;18.022;2023-05-06T09:03:15;1.00;;;0.90;;
12141;SDS011;6134;59.284;18.022;2023-05-06T09:05:44;2.17;;;1.10;;
12141;SDS011;6134;59.284;18.022;2023-05-06T09:08:14;2.03;;;0.80;;
12141;SDS011;6134;59.284;18.022;2023-05-06T09:10:43;1.52;;;0.85;;
12141;SDS011;6134;59.284;18.022;2023-05-06T09:13:13;3.05;;;1.02;;
12141;SDS011;6134;59.284;18.022;2023-05-06T09:15:43;1.30;;;1.10;;
12141;SDS011;6134;59.284;18.022;2023-05-06T09:18:12;1.27;;;0.85;;
12141;SDS011;6134;59.284;18.022;2023-05-06T09:20:42;2.97;;;0.90;;
12141;SDS011;6134;59.284;18.022;2023-05-06T09:23:13;1.95;;;1.00;;
12141;SDS011;6134;59.284;18.022;2023-05-06T09:25:43;1.10;;;0.90;;
12141;SDS011;6134;59.284;18.022;2023-05-06T09:28:15;1.80;;;0.70;;
12141;SDS011;6134;59.284;18.022;2023-05-06T09:30:44;1.10;;;1.00;;
12141;SDS011;6134;59.284;18.022;2023-05-06T09:33:13;2.30;;;0.93;;
12141;SDS011;6134;59.284;18.022;2023-05-06T09:35:42;2.20;;;0.82;;
12141;SDS011;6134;59.284;18.022;2023-05-06T09:38:11;5.35;;;1.27;;
12141;SDS011;6134;59.284;18.022;2023-05-06T09:40:40;1.15;;;0.90;;
12141;SDS011;6134;59.284;18.022;2023-05-06T09:43:10;1.35;;;1.00;;
12141;SDS011;6134;59.284;18.022;2023-05-06T09:45:41;1.08;;;0.90;;
12141;SDS011;6134;59.284;18.022;2023-05-06T09:48:11;5.70;;;1.00;;
12141;SDS011;6134;59.284;18.022;2023-05-06T09:50:42;1.50;;;1.13;;
12141;SDS011;6134;59.284;18.022;2023-05-06T09:53:11;1.08;;;0.90;;
12141;SDS011;6134;59.284;18.022;2023-05-06T09:55:40;1.02;;;0.93;;
12141;SDS011;6134;59.284;18.022;2023-05-06T09:58:10;2.17;;;1.30;;
12141;SDS011;6134;59.284;18.022;2023-05-06T10:00:40;3.42;;;0.98;;
12141;SDS011;6134;59.284;18.022;2023-05-06T10:03:08;1.23;;;0.80;;
12141;SDS011;6134;59.284;18.022;2023-05-06T10:05:38;1.67;;;0.90;;
12141;SDS011;6134;59.284;18.022;2023-05-06T10:08:07;3.00;;;0.80;;
12141;SDS011;6134;59.284;18.022;2023-05-06T10:10:36;1.15;;;0.90;;
12141;SDS011;6134;59.284;18.022;2023-05-06T10:13:10;2.22;;;1.10;;
12141;SDS011;6134;59.284;18.022;2023-05-06T10:15:39;1.17;;;1.08;;
12141;SDS011;6134;59.284;18.022;2023-05-06T10:18:09;1.10;;;1.00;;
12141;SDS011;6134;59.284;18.022;2023-05-06T10:20:38;3.63;;;1.20;;
12141;SDS011;6134;59.284;18.022;2023-05-06T10:23:12;0.80;;;0.80;;
12141;SDS011;6134;59.284;18.022;2023-05-06T10:25:41;0.70;;;0.70;;
12141;SDS011;6134;59.284;18.022;2023-05-06T10:28:12;2.67;;;0.90;;
12141;SDS011;6134;59.284;18.022;2023-05-06T10:30:56;1.15;;;0.80;;
12141;SDS011;6134;59.284;18.022;2023-05-06T10:33:25;2.33;;;1.02;;
12141;SDS011;6134;59.284;18.022;2023-05-06T10:35:56;1.00;;;1.00;;
12141;SDS011;6134;59.284;18.022;2023-05-06T10:38:29;0.88;;;0.88;;
12141;SDS011;6134;59.284;18.022;2023-05-06T10:40:59;2.85;;;0.90;;
12141;SDS011;6134;59.284;18.022;2023-05-06T10:43:30;1.10;;;1.00;;
12141;SDS011;6134;59.284;18.022;2023-05-06T10:46:03;1.60;;;1.17;;
12141;SDS011;6134;59.284;18.022;2023-05-06T10:48:34;1.00;;;0.82;;
12141;SDS011;6134;59.284;18.022;2023-05-06T10:51:22;1.00;;;0.90;;
12141;SDS011;6134;59.284;18.022;2023-05-06T10:53:55;2.60;;;0.90;;
12141;SDS011;6134;59.284;18.022;2023-05-06T10:56:24;2.13;;;1.05;;
12141;SDS011;6134;59.284;18.022;2023-05-06T10:58:54;1.17;;;0.93;;
12141;SDS011;6134;59.284;18.022;2023-05-06T11:01:25;1.88;;;1.05;;
12141;SDS011;6134;59.284;18.022;2023-05-06T11:03:54;1.15;;;1.05;;
12141;SDS011;6134;59.284;18.022;2023-05-06T11:06:37;2.38;;;0.90;;
12141;SDS011;6134;59.284;18.022;2023-05-06T11:09:14;1.50;;;0.80;;
12141;SDS011;6134;59.284;18.022;2023-05-06T11:11:50;1.10;;;1.00;;
12141;SDS011;6134;59.284;18.022;2023-05-06T11:14:28;2.92;;;0.98;;
12141;SDS011;6134;59.284;18.022;2023-05-06T11:16:57;1.50;;;1.10;;
12141;SDS011;6134;59.284;18.022;2023-05-06T11:19:27;1.55;;;1.05;;
12141;SDS011;6134;59.284;18.022;2023-05-06T11:21:57;2.13;;;0.90;;
12141;SDS011;6134;59.284;18.022;2023-05-06T11:24:26;1.27;;;1.00;;
12141;SDS011;6134;59.284;18.022;2023-05-06T11:26:55;2.25;;;1.00;;
12141;SDS011;6134;59.284;18.022;2023-05-06T11:29:24;2.28;;;1.00;;
12141;SDS011;6134;59.284;18.022;2023-05-06T11:31:54;2.25;;;0.95;;
12141;SDS011;6134;59.284;18.022;2023-05-06T11:34:24;3.90;;;1.25;;
12141;SDS011;6134;59.284;18.022;2023-05-06T11:36:55;1.52;;;1.42;;
12141;SDS011;6134;59.284;18.022;2023-05-06T11:39:24;2.17;;;0.90;;
12141;SDS011;6134;59.284;18.022;2023-05-06T11:41:56;1.10;;;0.90;;
12141;SDS011;6134;59.284;18.022;2023-05-06T11:44:26;3.60;;;1.00;;
12141;SDS011;6134;59.284;18.022;2023-05-06T11:46:57;1.85;;;1.00;;
12141;SDS011;6134;59.284;18.022;2023-05-06T11:49:26;1.80;;;1.00;;
12141;SDS011;6134;59.284;18.022;2023-05-06T11:51:55;2.50;;;1.00;;
12141;SDS011;6134;59.284;18.022;2023-05-06T11:54:24;2.10;;;1.02;;
12141;SDS011;6134;59.284;18.022;2023-05-06T11:56:54;2.47;;;1.10;;
12141;SDS011;6134;59.284;18.022;2023-05-06T11:59:27;1.25;;;0.93;;
12141;SDS011;6134;59.284;18.022;2023-05-06T12:01:58;1.83;;;1.10;;
12141;SDS011;6134;59.284;18.022;2023-05-06T12:04:30;1.17;;;1.08;;
12141;SDS011;6134;59.284;18.022;2023-05-06T12:07:04;1.88;;;1.20;;
12141;SDS011;6134;59.284;18.022;2023-05-06T12:09:33;1.58;;;1.10;;
12141;SDS011;6134;59.284;18.022;2023-05-06T12:12:02;1.45;;;1.17;;
12141;SDS011;6134;59.284;18.022;2023-05-06T12:14:32;2.22;;;0.93;;
12141;SDS011;6134;59.284;18.022;2023-05-06T12:17:02;0.75;;;0.75;;
12141;SDS011;6134;59.284;18.022;2023-05-06T12:19:31;2.10;;;1.13;;
12141;SDS011;6134;59.284;18.022;2023-05-06T12:22:16;1.60;;;1.00;;
12141;SDS011;6134;59.284;18.022;2023-05-06T12:24:45;4.50;;;1.00;;
12141;SDS011;6134;59.284;18.022;2023-05-06T12:27:26;1.15;;;0.90;;
12141;SDS011;6134;59.284;18.022;2023-05-06T12:29:55;1.48;;;1.02;;
12141;SDS011;6134;59.284;18.022;2023-05-06T12:32:25;2.95;;;0.90;;
12141;SDS011;6134;59.284;18.022;2023-05-06T12:34:54;1.05;;;0.90;;
12141;SDS011;6134;59.284;18.022;2023-05-06T12:37:24;1.17;;;1.08;;
12141;SDS011;6134;59.284;18.022;2023-05-06T12:39:53;1.48;;;1.10;;
12141;SDS011;6134;59.284;18.022;2023-05-06T12:42:24;1.02;;;0.90;;
12141;SDS011;6134;59.284;18.022;2023-05-06T12:44:53;0.88;;;0.80;;
12141;SDS011;6134;59.284;18.022;2023-05-06T12:47:23;1.20;;;1.10;;
12141;SDS011;6134;59.284;18.022;2023-05-06T12:49:54;1.10;;;1.00;;
12141;SDS011;6134;59.284;18.022;2023-05-06T12:52:41;2.83;;;1.10;;
12141;SDS011;6134;59.284;18.022;2023-05-06T12:55:10;1.85;;;1.02;;
12141;SDS011;6134;59.284;18.022;2023-05-06T12:57:39;1.48;;;1.30;;
12141;SDS011;6134;59.284;18.022;2023-05-06T13:00:08;3.47;;;1.23;;
12141;SDS011;6134;59.284;18.022;2023-05-06T13:02:37;1.10;;;1.00;;
12141;SDS011;6134;59.284;18.022;2023-05-06T13:05:08;1.10;;;0.90;;
12141;SDS011;6134;59.284;18.022;2023-05-06T13:07:37;1.40;;;1.10;;
12141;SDS011;6134;59.284;18.022;2023-05-06T13:10:06;2.80;;;1.00;;
12141;SDS011;6134;59.284;18.022;2023-05-06T13:12:35;1.75;;;0.98;;
12141;SDS011;6134;59.284;18.022;2023-05-06T13:15:04;1.83;;;0.85;;
12141;SDS011;6134;59.284;18.022;2023-05-06T13:17:34;3.20;;;1.10;;
12141;SDS011;6134;59.284;18.022;2023-05-06T13:20:03;2.40;;;1.10;;
12141;SDS011;6134;59.284;18.022;2023-05-06T13:22:34;2.05;;;1.27;;
12141;SDS011;6134;59.284;18.022;2023-05-06T13:25:19;1.67;;;1.02;;
12141;SDS011;6134;59.284;18.022;2023-05-06T13:27:48;1.08;;;0.85;;
12141;SDS011;6134;59.284;18.022;2023-05-06T13:30:17;1.20;;;1.10;;
12141;SDS011;6134;59.284;18.022;2023-05-06T13:32:46;9.05;;;1.50;;
12141;SDS011;6134;59.284;18.022;2023-05-06T13:35:14;1.48;;;1.00;;
12141;SDS011;6134;59.284;18.022;2023-05-06T13:37:44;1.42;;;1.33;;
12141;SDS011;6134;59.284;18.022;2023-05-06T13:40:13;4.03;;;1.98;;
12141;SDS011;6134;59.284;18.022;2023-05-06T13:42:42;1.40;;;1.30;;
12141;SDS011;6134;59.284;18.022;2023-05-06T13:45:10;3.40;;;1.00;;
12141;SDS011;6134;59.284;18.022;2023-05-06T13:47:39;1.73;;;0.95;;
12141;SDS011;6134;59.284;18.022;2023-05-06T13:50:09;2.75;;;1.20;;
12141;SDS011;6134;59.284;18.022;2023-05-06T13:52:38;3.08;;;1.30;;
12141;SDS011;6134;59.284;18.022;2023-05-06T13:55:08;1.55;;;0.95;;
12141;SDS011;6134;59.284;18.022;2023-05-06T13:57:38;1.02;;;0.93;;
12141;SDS011;6134;59.284;18.022;2023-05-06T14:00:07;3.67;;;2.15;;
12141;SDS011;6134;59.284;18.022;2023-05-06T14:02:37;3.80;;;1.98;;
12141;SDS011;6134;59.284;18.022;2023-05-06T14:05:06;1.45;;;1.13;;
12141;SDS011;6134;59.284;18.022;2023-05-06T14:07:35;2.50;;;1.15;;
12141;SDS011;6134;59.284;18.022;2023-05-06T14:10:06;1.75;;;1.00;;
12141;SDS011;6134;59.284;18.022;2023-05-06T14:12:36;2.35;;;1.20;;
12141;SDS011;6134;59.284;18.022;2023-05-06T14:15:06;1.67;;;0.90;;
12141;SDS011;6134;59.284;18.022;2023-05-06T14:17:35;2.25;;;0.93;;
12141;SDS011;6134;59.284;18.022;2023-05-06T14:20:04;0.90;;;0.90;;
12141;SDS011;6134;59.284;18.022;2023-05-06T14:22:34;0.80;;;0.80;;
12141;SDS011;6134;59.284;18.022;2023-05-06T14:25:04;1.00;;;0.88;;
12141;SDS011;6134;59.284;18.022;2023-05-06T14:27:33;1.42;;;0.90;;
12141;SDS011;6134;59.284;18.022;2023-05-06T14:30:03;2.15;;;1.00;;
12141;SDS011;6134;59.284;18.022;2023-05-06T14:32:35;0.90;;;0.90;;
12141;SDS011;6134;59.284;18.022;2023-05-06T14:35:04;3.53;;;1.75;;
12141;SDS011;6134;59.284;18.022;2023-05-06T14:37:33;1.98;;;1.10;;
12141;SDS011;6134;59.284;18.022;2023-05-06T14:40:01;1.42;;;1.00;;
12141;SDS011;6134;59.284;18.022;2023-05-06T14:42:30;1.92;;;1.02;;
12141;SDS011;6134;59.284;18.022;2023-05-06T14:45:03;1.20;;;1.00;;
12141;SDS011;6134;59.284;18.022;2023-05-06T14:47:32;1.67;;;1.10;;
12141;SDS011;6134;59.284;18.022;2023-05-06T14:50:01;4.38;;;1.08;;
12141;SDS011;6134;59.284;18.022;2023-05-06T14:52:32;2.22;;;1.17;;
12141;SDS011;6134;59.284;18.022;2023-05-06T14:55:01;1.20;;;1.10;;
12141;SDS011;6134;59.284;18.022;2023-05-06T14:57:30;1.60;;;1.00;;
12141;SDS011;6134;59.284;18.022;2023-05-06T15:00:00;1.48;;;1.00;;
12141;SDS011;6134;59.284;18.022;2023-05-06T15:02:31;1.13;;;1.02;;
12141;SDS011;6134;59.284;18.022;2023-05-06T15:05:00;2.55;;;1.00;;